NCAR-RAP Real-Time Weather Data

Output produced by METARs form (12 May 2021  11:47 UTC)
found at http://weather.rap.ucar.edu/surface/
 
KOJC 121053Z AUTO 04005KT 10SM OVC100 09/05 A3038 RMK AO2 SLP287 T00940050
KOJC 120953Z AUTO 05005KT 10SM FEW070 OVC100 09/05 A3036 RMK AO2 SLP282 T00940050
KOJC 120853Z AUTO 05003KT 10SM BKN100 09/05 A3035 RMK AO2 SLP277 T00940050 53007
KOJC 120753Z AUTO 05005KT 10SM BKN110 10/04 A3033 RMK AO2 SLP271 T01000044
KOJC 120653Z AUTO 05006KT 10SM FEW075 OVC110 11/04 A3033 RMK AO2 SLP270 T01060044
KOJC 120553Z AUTO 06005KT 10SM SCT070 OVC100 11/05 A3033 RMK AO2 SLP269 60001 T01060050 10133 20106 401560078 51007
KOJC 120453Z AUTO 08005KT 10SM FEW075 OVC090 11/06 A3032 RMK AO2 SLP266 T01110061
KOJC 120353Z AUTO 04005KT 10SM OVC060 11/07 A3032 RMK AO2 SLP268 T01110072
KOJC 120253Z 08003KT 10SM OVC070 11/08 A3031 RMK AO2 SLP263 60001 T01110078 53018
KOJC 120153Z 09006KT 10SM OVC065 11/08 A3029 RMK AO2 RAE0055 SLP256 P0001 T01110078
KOJC 120053Z 08005KT 10SM -RA FEW045 OVC060 12/08 A3027 RMK AO2 RAB37 SLP251 P0000 T01170078
KOJC 112353Z 07005KT 10SM OVC065 13/07 A3025 RMK AO2 SLP245 T01330072 10156 20133 53006
KOJC 112253Z 06010KT 10SM OVC065 13/07 A3024 RMK AO2 SLP239 T01330067
KOJC 112153Z 07009G18KT 10SM OVC055 14/07 A3022 RMK AO2 SLP234 T01390067
KOJC 112053Z 06011G16KT 10SM OVC050 13/07 A3024 RMK AO2 SLP238 T01330067 55002